createdAt,value
2018-01-12T00:05:40.880Z,1019.5
2018-01-12T00:15:54.911Z,1019.5
2018-01-12T00:26:10.796Z,1019.4
2018-01-12T00:36:24.915Z,1019.4
2018-01-12T00:46:38.641Z,1019.6
2018-01-12T00:56:52.770Z,1019.7
2018-01-12T01:07:07.066Z,1019.8
2018-01-12T01:17:21.226Z,1019.8
2018-01-12T01:27:37.025Z,1019.9
2018-01-12T01:37:50.789Z,1020.0
2018-01-12T01:48:05.064Z,1020.0
2018-01-12T01:58:19.225Z,1020.1
2018-01-12T02:08:31.643Z,1020.2
2018-01-12T02:18:43.903Z,1020.1
2018-01-12T02:28:58.077Z,1020.3
2018-01-12T02:39:12.864Z,1020.2
2018-01-12T02:49:26.765Z,1020.3
2018-01-12T02:59:40.769Z,1020.2
2018-01-12T03:09:54.793Z,1020.4
2018-01-12T03:20:39.342Z,1020.4
2018-01-12T03:30:52.992Z,1020.6
2018-01-12T03:41:08.041Z,1020.5
2018-01-12T03:51:21.358Z,1020.6
2018-01-12T04:01:34.606Z,1020.6
2018-01-12T04:11:47.978Z,1020.5
2018-01-12T04:22:02.383Z,1020.6
2018-01-12T04:32:18.123Z,1020.6
2018-01-12T04:42:31.844Z,1020.6
2018-01-12T04:53:17.094Z,1020.8
2018-01-12T05:03:31.038Z,1020.7
2018-01-12T05:14:16.852Z,1020.7
2018-01-12T05:24:30.961Z,1020.6
2018-01-12T05:34:45.110Z,1020.6
2018-01-12T05:45:03.380Z,1020.6
2018-01-12T05:55:21.089Z,1020.6
2018-01-12T06:05:34.704Z,1020.7
2018-01-12T06:15:48.817Z,1020.7
2018-01-12T06:26:03.173Z,1020.8
2018-01-12T06:36:48.562Z,1021.0
2018-01-12T06:47:10.407Z,1021.1
2018-01-12T06:57:25.971Z,1021.2
2018-01-12T07:08:14.778Z,1021.2
2018-01-12T07:18:28.471Z,1021.3
2018-01-12T07:28:42.240Z,1021.4
2018-01-12T07:39:53.852Z,1021.5
2018-01-12T07:50:09.069Z,1021.6
2018-01-12T08:00:24.385Z,1021.7
2018-01-12T08:10:37.663Z,1021.9
2018-01-12T08:20:51.338Z,1022.0
2018-01-12T08:31:27.743Z,1022.0
2018-01-12T08:42:19.220Z,1022.1
2018-01-12T08:52:32.674Z,1022.2
2018-01-12T09:02:45.910Z,1022.4
2018-01-12T09:13:02.827Z,1022.5
2018-01-12T09:23:16.534Z,1022.6
2018-01-12T09:34:02.132Z,1022.7
2018-01-12T09:44:52.458Z,1022.8
2018-01-12T09:55:14.675Z,1022.9
2018-01-12T10:16:05.750Z,1023.0
2018-01-12T10:26:51.253Z,1022.9
2018-01-12T10:37:13.244Z,1022.9
2018-01-12T10:47:27.088Z,1022.8
2018-01-12T10:57:41.202Z,1022.9
2018-01-12T11:07:55.387Z,1022.8
2018-01-12T11:18:09.503Z,1022.8
2018-01-12T11:28:54.103Z,1022.6
2018-01-12T11:39:39.004Z,1022.6
2018-01-12T11:49:53.082Z,1022.5
2018-01-12T12:00:37.573Z,1022.5
2018-01-12T12:10:51.367Z,1022.5
2018-01-12T12:21:36.890Z,1022.5
2018-01-12T12:32:38.490Z,1022.4
2018-01-12T12:43:28.295Z,1022.4
2018-01-12T13:03:58.754Z,1022.3
2018-01-12T13:14:14.303Z,1022.3
2018-01-12T13:24:28.577Z,1022.3
2018-01-12T13:34:42.532Z,1022.3
2018-01-12T13:44:59.504Z,1022.3
2018-01-12T13:56:09.756Z,1022.3
2018-01-12T14:06:24.184Z,1022.4
2018-01-12T14:16:50.045Z,1022.6
2018-01-12T14:27:03.921Z,1022.7
2018-01-12T14:37:17.187Z,1022.8
2018-01-12T14:47:30.861Z,1022.8
2018-01-12T14:57:46.833Z,1022.8
2018-01-12T15:08:07.467Z,1022.9
2018-01-12T15:18:26.966Z,1022.9
2018-01-12T15:28:45.127Z,1022.9
2018-01-12T15:39:02.588Z,1023.0
2018-01-12T15:49:21.704Z,1022.9
2018-01-12T16:00:07.229Z,1022.9
2018-01-12T16:10:23.577Z,1022.9
2018-01-12T16:20:42.817Z,1023.0
2018-01-12T16:30:58.230Z,1023.0
2018-01-12T16:41:13.242Z,1023.1
2018-01-12T16:51:27.141Z,1023.1
2018-01-12T17:01:42.016Z,1023.1
2018-01-12T17:11:55.735Z,1023.0
2018-01-12T17:22:11.948Z,1023.1
2018-01-12T17:33:00.298Z,1023.1
2018-01-12T17:43:48.199Z,1023.0
2018-01-12T17:54:43.992Z,1023.2
2018-01-12T18:05:02.225Z,1023.2
2018-01-12T18:15:48.588Z,1023.2
2018-01-12T18:26:39.063Z,1023.2
2018-01-12T18:37:14.695Z,1023.2
2018-01-12T20:17:00.251Z,1023.3
2018-01-12T20:42:39.234Z,1023.5
2018-01-12T20:53:38.880Z,1023.4
2018-01-12T21:19:27.280Z,1023.3
2018-01-12T21:32:52.198Z,1023.4
2018-01-12T21:53:37.229Z,1023.5
2018-01-12T22:03:52.557Z,1023.3
2018-01-12T22:14:10.648Z,1023.5
2018-01-12T22:24:28.262Z,1023.5
2018-01-12T22:35:30.757Z,1023.5
2018-01-12T22:45:46.107Z,1023.5
2018-01-12T22:56:40.694Z,1023.5
2018-01-12T23:06:58.834Z,1023.5
2018-01-12T23:17:24.482Z,1023.5
2018-01-12T23:27:43.079Z,1023.4
2018-01-12T23:38:30.213Z,1023.3
2018-01-12T23:49:26.768Z,1023.2
